Time;durP1;ratioP1;P1;durP2;ratioP2;P2;SDS_P1;SDS_P2;PMS_P1;PMS_P2;Temp;Humidity;BMP_temperature;BMP_pressure;BME280_temperature;BME280_humidity;BME280_pressure;Samples;Min_cycle;Max_cycle;Signal;HPM_P1;HPM_P2
2022/09/07 00:00:39;;;;;;;5.38;3.30;;;15.90;99.90;;;;;;5033715;28;20613;-53
2022/09/07 00:03:07;;;;;;;5.70;3.20;;;15.90;99.90;;;;;;5033838;28;20499;-55
2022/09/07 00:05:41;;;;;;;5.50;2.58;;;15.80;99.90;;;;;;5033979;28;20106;-53
2022/09/07 00:08:09;;;;;;;10.35;3.17;;;15.80;99.90;;;;;;5034248;28;20091;-54
2022/09/07 00:10:36;;;;;;;7.05;2.88;;;15.80;99.90;;;;;;5034121;28;20611;-53
2022/09/07 00:13:04;;;;;;;5.78;3.15;;;15.70;99.90;;;;;;5032906;28;20048;-54
2022/09/07 00:15:31;;;;;;;7.80;4.07;;;15.70;99.90;;;;;;5020162;28;20436;-54
2022/09/07 00:17:58;;;;;;;8.23;4.05;;;15.60;99.90;;;;;;5014281;28;20053;-56
2022/09/07 00:20:25;;;;;;;11.88;4.07;;;15.60;99.90;;;;;;5014477;28;20054;-53
2022/09/07 00:22:52;;;;;;;10.05;4.10;;;15.60;99.90;;;;;;5012043;28;20103;-52
2022/09/07 00:25:19;;;;;;;7.38;3.75;;;15.60;99.90;;;;;;5014217;28;20052;-50
2022/09/07 00:27:46;;;;;;;7.70;4.00;;;15.60;99.90;;;;;;5014011;28;20041;-56
2022/09/07 00:30:12;;;;;;;7.07;3.75;;;15.60;99.90;;;;;;5013252;28;20048;-51
2022/09/07 00:32:39;;;;;;;6.95;3.85;;;15.50;99.90;;;;;;5014305;28;20073;-50
2022/09/07 00:35:06;;;;;;;8.23;5.10;;;15.60;99.90;;;;;;5012852;28;20049;-54
2022/09/07 00:37:33;;;;;;;8.50;3.00;;;15.60;99.90;;;;;;5014376;28;20042;-52
2022/09/07 00:40:00;;;;;;;;;;;15.50;99.90;;;;;;5014203;28;20053;-56
2022/09/07 00:42:26;;;;;;;11.05;3.72;;;15.60;99.90;;;;;;5014360;28;19932;-52
2022/09/07 00:44:53;;;;;;;;;;;15.60;99.90;;;;;;5014280;28;20050;-50
2022/09/07 00:47:22;;;;;;;5.25;2.90;;;15.60;99.90;;;;;;5011602;28;20033;-55
2022/09/07 00:49:58;;;;;;;10.75;3.25;;;15.60;99.90;;;;;;5014111;28;20045;-56
2022/09/07 00:52:28;;;;;;;9.80;3.10;;;15.60;99.90;;;;;;5013551;28;20061;-53
2022/09/07 00:55:00;;;;;;;9.30;3.38;;;15.60;99.90;;;;;;5013879;28;20446;-54
2022/09/07 00:57:27;;;;;;;9.25;2.75;;;15.60;99.90;;;;;;5024608;28;20110;-55
2022/09/07 00:59:56;;;;;;;6.20;2.88;;;15.60;99.90;;;;;;5033233;28;20123;-52
2022/09/07 01:02:25;;;;;;;7.90;3.53;;;15.60;99.90;;;;;;5033973;28;20091;-53
2022/09/07 01:05:04;;;;;;;6.97;2.63;;;15.60;99.90;;;;;;5032511;28;20037;-54
2022/09/07 01:07:35;;;;;;;5.03;3.00;;;15.60;99.90;;;;;;5033768;28;20049;-53
2022/09/07 01:10:02;;;;;;;10.80;3.40;;;15.60;99.90;;;;;;5033350;28;20143;-54
2022/09/07 01:12:30;;;;;;;4.40;2.95;;;15.70;99.90;;;;;;5033229;28;20037;-53
2022/09/07 01:14:56;;;;;;;5.50;3.13;;;15.60;99.90;;;;;;5023171;28;20131;-54
2022/09/07 01:17:35;;;;;;;9.13;2.78;;;15.60;99.90;;;;;;5013840;28;20712;-54
2022/09/07 01:20:34;;;;;;;7.63;2.67;;;15.70;99.90;;;;;;5013587;28;20053;-52
2022/09/07 01:23:32;;;;;;;5.35;2.60;;;15.70;99.90;;;;;;5027976;28;20509;-51
2022/09/07 01:26:10;;;;;;;7.38;3.35;;;15.70;99.90;;;;;;5031718;28;20044;-52
2022/09/07 01:28:38;;;;;;;5.28;3.03;;;15.60;99.90;;;;;;5032969;28;20536;-53
2022/09/07 01:31:38;;;;;;;8.57;3.42;;;15.60;99.90;;;;;;5033602;28;20675;-53
2022/09/07 01:34:10;;;;;;;9.50;3.30;;;15.60;99.90;;;;;;5016915;28;20061;-51
2022/09/07 01:36:55;;;;;;;7.38;3.42;;;15.50;99.90;;;;;;5013914;28;20149;-53
2022/09/07 01:39:36;;;;;;;6.50;2.58;;;15.50;99.90;;;;;;5014265;28;20045;-52
2022/09/07 01:42:27;;;;;;;4.10;2.88;;;15.50;99.90;;;;;;5016984;28;20091;-50
2022/09/07 01:44:58;;;;;;;7.95;2.85;;;15.40;99.90;;;;;;5016236;28;20096;-52
2022/09/07 01:47:37;;;;;;;9.60;2.88;;;15.40;99.90;;;;;;5029360;28;20052;-49
2022/09/07 01:50:25;;;;;;;10.73;3.17;;;15.40;99.90;;;;;;5035691;28;20935;-51
2022/09/07 01:52:59;;;;;;;14.35;3.20;;;15.30;99.90;;;;;;5036462;28;20045;-51
2022/09/07 01:55:41;;;;;;;9.90;3.13;;;15.30;99.90;;;;;;5033899;28;20060;-50
2022/09/07 01:58:11;;;;;;;4.53;2.80;;;15.20;99.90;;;;;;5033837;28;20060;-54
2022/09/07 02:00:42;;;;;;;11.07;3.42;;;15.20;99.90;;;;;;5034353;28;20040;-49
2022/09/07 02:03:17;;;;;;;7.15;2.97;;;15.20;99.90;;;;;;5035980;28;20812;-53
2022/09/07 02:05:57;;;;;;;4.90;2.53;;;15.30;99.90;;;;;;5036889;28;20876;-52
2022/09/07 02:08:36;;;;;;;9.13;3.45;;;15.30;99.90;;;;;;5035678;28;20056;-49
2022/09/07 02:11:10;;;;;;;4.97;2.35;;;15.30;99.90;;;;;;5036304;28;20041;-53
2022/09/07 02:13:40;;;;;;;3.47;2.45;;;15.30;99.90;;;;;;5033822;28;20040;-52
2022/09/07 02:16:27;;;;;;;5.35;2.60;;;15.40;99.90;;;;;;5017280;28;20423;-53
2022/09/07 02:19:03;;;;;;;8.98;1.88;;;15.40;99.90;;;;;;5016219;28;20652;-52
2022/09/07 02:21:37;;;;;;;6.20;2.67;;;15.30;99.90;;;;;;5016161;28;20041;-52
2022/09/07 02:24:13;;;;;;;6.72;2.60;;;15.30;99.90;;;;;;5015308;28;20052;-53
2022/09/07 02:26:40;;;;;;;10.25;2.80;;;15.30;99.90;;;;;;5016514;28;20044;-49
2022/09/07 02:29:07;;;;;;;13.52;3.55;;;15.30;99.90;;;;;;5015772;28;20041;-52
2022/09/07 02:31:34;;;;;;;;;;;15.20;99.90;;;;;;5016482;28;20076;-52
2022/09/07 02:34:01;;;;;;;6.15;2.60;;;15.20;99.90;;;;;;5014561;28;19952;-50
2022/09/07 02:36:30;;;;;;;;;;;15.10;99.90;;;;;;5014914;28;20495;-51
2022/09/07 02:38:57;;;;;;;4.82;2.53;;;15.10;99.90;;;;;;5016192;28;19994;-52
2022/09/07 02:41:35;;;;;;;;;;;15.10;99.90;;;;;;5016019;28;20061;-51
2022/09/07 02:44:18;;;;;;;4.60;2.55;;;15.00;99.90;;;;;;5015908;28;19921;-55
2022/09/07 02:47:20;;;;;;;9.70;3.60;;;15.00;99.90;;;;;;5015785;28;20119;-55
2022/09/07 02:50:08;;;;;;;8.05;4.03;;;15.00;99.90;;;;;;5016026;28;20053;-53
2022/09/07 02:52:53;;;;;;;8.32;3.65;;;15.00;99.90;;;;;;5015170;28;20054;-53
2022/09/07 02:55:37;;;;;;;14.50;4.63;;;15.00;99.90;;;;;;5015750;28;20052;-54
2022/09/07 02:58:10;;;;;;;5.60;3.63;;;15.00;99.90;;;;;;5016215;28;20050;-55
2022/09/07 03:01:08;;;;;;;7.18;3.42;;;15.00;99.90;;;;;;5033346;28;20041;-52
2022/09/07 03:03:59;;;;;;;5.00;3.10;;;15.00;99.90;;;;;;5019911;28;20045;-54
2022/09/07 03:06:39;;;;;;;7.93;3.25;;;15.10;99.90;;;;;;5015759;28;20068;-54
2022/09/07 03:09:11;;;;;;;10.07;4.25;;;15.10;99.90;;;;;;5014294;28;20218;-54
2022/09/07 03:11:38;;;;;;;6.72;2.80;;;15.10;99.90;;;;;;5028338;28;20041;-54
2022/09/07 03:14:15;;;;;;;;;;;15.10;99.90;;;;;;5032861;28;20731;-54
2022/09/07 03:16:42;;;;;;;8.60;2.92;;;15.10;99.90;;;;;;5015031;28;19986;-53
2022/09/07 03:19:09;;;;;;;7.45;2.97;;;15.10;99.90;;;;;;5015151;28;20053;-54
2022/09/07 03:21:36;;;;;;;;;;;15.10;99.90;;;;;;5015299;28;20056;-56
2022/09/07 03:24:03;;;;;;;15.77;3.58;;;15.10;99.90;;;;;;5014906;28;20054;-56
2022/09/07 03:26:30;;;;;;;6.63;3.22;;;15.10;99.90;;;;;;5014794;28;20041;-56
2022/09/07 03:28:56;;;;;;;7.28;2.90;;;15.10;99.90;;;;;;5014896;28;20070;-55
2022/09/07 03:31:23;;;;;;;;;;;15.10;99.90;;;;;;5015818;28;20049;-55
2022/09/07 03:33:50;;;;;;;9.55;3.03;;;15.10;99.90;;;;;;5014167;28;19925;-53
2022/09/07 03:36:17;;;;;;;;;;;15.10;99.90;;;;;;5015417;28;20443;-54
2022/09/07 03:38:44;;;;;;;9.23;2.20;;;15.20;99.90;;;;;;5012935;28;20383;-55
2022/09/07 03:41:11;;;;;;;7.13;2.88;;;15.20;99.90;;;;;;5014803;28;20049;-54
2022/09/07 03:43:38;;;;;;;4.32;2.40;;;15.30;99.90;;;;;;5014459;28;20040;-56
2022/09/07 03:46:06;;;;;;;6.25;2.60;;;15.40;99.90;;;;;;5014484;28;20423;-54
2022/09/07 03:48:34;;;;;;;4.75;2.97;;;15.50;99.90;;;;;;5015124;28;20049;-55
2022/09/07 03:51:04;;;;;;;7.45;2.70;;;15.50;99.90;;;;;;5014305;28;20043;-54
2022/09/07 03:53:36;;;;;;;3.88;2.53;;;15.60;99.90;;;;;;5014230;28;20057;-54
2022/09/07 03:56:09;;;;;;;9.23;3.50;;;15.60;99.90;;;;;;5014183;28;20107;-56
2022/09/07 03:58:36;;;;;;;7.55;3.08;;;15.60;99.90;;;;;;5014449;28;20057;-54
2022/09/07 04:01:09;;;;;;;10.88;3.97;;;15.70;99.90;;;;;;5026572;28;20612;-53
2022/09/07 04:03:36;;;;;;;3.50;2.58;;;15.70;99.90;;;;;;5033363;28;20047;-55
2022/09/07 04:06:04;;;;;;;5.60;2.10;;;15.70;99.90;;;;;;5033201;28;20041;-53
2022/09/07 04:08:33;;;;;;;14.63;3.05;;;15.70;99.90;;;;;;5033869;28;20083;-54
2022/09/07 04:11:02;;;;;;;12.43;3.45;;;15.70;99.90;;;;;;5034008;28;20122;-52
2022/09/07 04:13:30;;;;;;;7.97;2.45;;;15.80;99.90;;;;;;5032937;28;21259;-54
2022/09/07 04:15:57;;;;;;;4.78;2.47;;;15.70;99.90;;;;;;5032587;28;20044;-53
2022/09/07 04:18:24;;;;;;;10.75;2.88;;;15.70;99.90;;;;;;5032606;28;20795;-50
2022/09/07 04:20:51;;;;;;;6.28;2.53;;;15.80;99.90;;;;;;5032152;28;20071;-55
2022/09/07 04:23:18;;;;;;;7.88;3.00;;;15.70;99.90;;;;;;5033717;28;20072;-56
2022/09/07 04:25:50;;;;;;;3.92;2.42;;;15.60;99.90;;;;;;5031514;28;20118;-55
2022/09/07 04:28:18;;;;;;;3.40;2.58;;;15.60;99.90;;;;;;5033831;28;20044;-54
2022/09/07 04:30:46;;;;;;;4.03;2.55;;;15.60;99.90;;;;;;5033321;28;20040;-53
2022/09/07 04:33:13;;;;;;;5.28;2.65;;;15.60;99.90;;;;;;5033322;28;20372;-54
2022/09/07 04:35:41;;;;;;;5.57;2.15;;;15.60;99.90;;;;;;5033952;28;20040;-52
2022/09/07 04:38:13;;;;;;;10.18;2.83;;;15.60;99.90;;;;;;5033388;28;20045;-54
2022/09/07 04:40:40;;;;;;;3.70;2.17;;;15.60;99.90;;;;;;5032523;28;20547;-55
2022/09/07 04:43:08;;;;;;;3.40;2.40;;;15.60;99.90;;;;;;5032830;28;20041;-53
2022/09/07 04:45:36;;;;;;;5.18;2.00;;;15.70;99.90;;;;;;5033925;28;20647;-55
2022/09/07 04:48:03;;;;;;;8.05;2.50;;;15.60;99.90;;;;;;5033749;28;20049;-53
2022/09/07 04:50:31;;;;;;;4.00;2.75;;;15.70;99.90;;;;;;5034138;28;20044;-54
2022/09/07 04:52:57;;;;;;;6.90;2.20;;;15.60;99.90;;;;;;5033622;28;20434;-53
2022/09/07 04:55:24;;;;;;;;;;;15.60;99.90;;;;;;5034063;28;20056;-53
2022/09/07 04:57:51;;;;;;;7.80;2.72;;;15.60;99.90;;;;;;5033712;28;19960;-50
2022/09/07 05:00:18;;;;;;;;;;;15.70;99.90;;;;;;5033149;28;20075;-54
2022/09/07 05:02:45;;;;;;;4.78;1.88;;;15.70;99.90;;;;;;5029747;28;19924;-52
2022/09/07 05:05:12;;;;;;;4.93;2.20;;;15.70;99.90;;;;;;5032718;28;20835;-53
2022/09/07 05:07:38;;;;;;;;;;;15.70;99.90;;;;;;5034734;28;20037;-55
2022/09/07 05:10:05;;;;;;;4.45;2.35;;;15.70;99.90;;;;;;5032288;28;20859;-53
2022/09/07 05:12:32;;;;;;;2.78;1.92;;;15.70;99.90;;;;;;5032543;28;20045;-54
2022/09/07 05:15:00;;;;;;;;;;;15.70;99.90;;;;;;5027306;28;20099;-55
2022/09/07 05:17:29;;;;;;;5.05;2.08;;;15.70;99.90;;;;;;5016609;28;19996;-53
2022/09/07 05:19:57;;;;;;;4.32;1.88;;;15.70;99.90;;;;;;5017466;28;20046;-54
2022/09/07 05:22:24;;;;;;;7.10;2.15;;;15.70;99.90;;;;;;5015518;28;20531;-53
2022/09/07 05:24:50;;;;;;;6.47;2.30;;;15.80;99.90;;;;;;5017039;28;20586;-49
2022/09/07 05:27:17;;;;;;;;;;;15.80;99.90;;;;;;5018017;28;20099;-51
2022/09/07 05:29:44;;;;;;;5.07;1.77;;;15.90;99.90;;;;;;5016529;28;20018;-52
2022/09/07 05:32:26;;;;;;;5.03;2.17;;;15.90;99.90;;;;;;5017064;28;20038;-48
2022/09/07 05:34:53;;;;;;;3.50;2.08;;;15.90;99.90;;;;;;5016006;28;20073;-49
2022/09/07 05:37:19;;;;;;;;;;;16.00;99.90;;;;;;5017782;28;20049;-50
2022/09/07 05:39:46;;;;;;;9.00;3.28;;;15.90;99.90;;;;;;5016129;28;19932;-49
2022/09/07 05:42:13;;;;;;;11.80;2.38;;;16.00;99.90;;;;;;5016967;28;20136;-52
2022/09/07 05:44:40;;;;;;;;;;;16.00;99.90;;;;;;5017411;28;20046;-52
2022/09/07 05:47:08;;;;;;;6.07;2.72;;;15.90;99.90;;;;;;5016784;28;19924;-51
2022/09/07 05:49:35;;;;;;;8.07;2.58;;;15.90;99.90;;;;;;5017143;28;20120;-52
2022/09/07 05:52:02;;;;;;;7.03;3.25;;;15.90;99.90;;;;;;5016536;28;20041;-51
2022/09/07 05:54:29;;;;;;;13.55;2.60;;;15.90;99.90;;;;;;5016866;28;20107;-50
2022/09/07 05:56:55;;;;;;;6.63;2.55;;;15.90;99.90;;;;;;5015997;28;20059;-48
2022/09/07 05:59:22;;;;;;;;;;;16.00;99.90;;;;;;5017840;28;20049;-51
2022/09/07 06:01:49;;;;;;;7.05;3.10;;;16.00;99.90;;;;;;5022868;28;19924;-50
2022/09/07 06:04:16;;;;;;;4.10;2.80;;;16.00;99.90;;;;;;5034300;28;20041;-49
2022/09/07 06:06:42;;;;;;;;;;;16.10;99.90;;;;;;5037329;28;20049;-51
2022/09/07 06:09:32;;;;;;;8.93;2.50;;;16.10;99.90;;;;;;5035693;28;19925;-52
2022/09/07 06:11:58;;;;;;;;;;;16.10;99.90;;;;;;5036519;28;20112;-51
2022/09/07 06:14:25;;;;;;;8.02;3.38;;;16.10;99.90;;;;;;5030707;28;19925;-50
2022/09/07 06:16:52;;;;;;;6.45;3.45;;;16.20;99.90;;;;;;5016412;28;20535;-50
2022/09/07 06:19:19;;;;;;;5.85;2.90;;;16.20;99.90;;;;;;5014349;28;20139;-51
2022/09/07 06:21:46;;;;;;;9.32;3.58;;;16.30;99.90;;;;;;5014338;28;20053;-50
2022/09/07 06:24:12;;;;;;;;;;;16.40;99.90;;;;;;5016590;28;20066;-50
2022/09/07 06:26:39;;;;;;;10.05;3.63;;;16.50;99.90;;;;;;5015149;28;19925;-51
2022/09/07 06:29:07;;;;;;;9.98;4.22;;;16.60;99.90;;;;;;5014402;28;20589;-52
2022/09/07 06:31:35;;;;;;;11.30;3.53;;;16.70;99.90;;;;;;5015258;28;20045;-52
2022/09/07 06:34:21;;;;;;;7.13;2.90;;;16.70;99.90;;;;;;5015741;28;20064;-50
2022/09/07 06:36:48;;;;;;;16.88;3.78;;;16.70;99.90;;;;;;5014218;28;20053;-50
2022/09/07 06:39:15;;;;;;;;;;;16.70;99.90;;;;;;5016256;28;20052;-49
2022/09/07 06:41:42;;;;;;;8.57;2.70;;;16.70;99.90;;;;;;5015636;28;19925;-52
2022/09/07 06:44:29;;;;;;;4.05;2.50;;;16.70;99.90;;;;;;5013627;28;20500;-50
2022/09/07 06:46:56;;;;;;;8.05;2.92;;;16.80;99.90;;;;;;5014640;28;20773;-49
2022/09/07 06:49:30;;;;;;;12.02;3.17;;;16.90;99.90;;;;;;5015540;28;20044;-52
2022/09/07 06:51:57;;;;;;;8.75;2.65;;;16.90;99.90;;;;;;5014741;28;20045;-49
2022/09/07 06:54:24;;;;;;;12.88;2.70;;;16.90;99.90;;;;;;5015630;28;20828;-51
2022/09/07 06:57:11;;;;;;;15.07;2.72;;;17.00;99.90;;;;;;5015457;28;20084;-50
2022/09/07 06:59:38;;;;;;;;;;;17.00;99.90;;;;;;5015826;28;20045;-49
2022/09/07 07:02:05;;;;;;;13.10;2.80;;;17.10;99.90;;;;;;5013993;28;20199;-51
2022/09/07 07:04:32;;;;;;;7.05;2.95;;;17.10;99.90;;;;;;5021195;28;20040;-51
2022/09/07 07:07:11;;;;;;;6.32;2.80;;;17.20;99.90;;;;;;5014806;28;20907;-53
2022/09/07 07:09:38;;;;;;;8.80;3.30;;;17.20;99.90;;;;;;5015226;28;20052;-53
2022/09/07 07:12:05;;;;;;;6.68;2.97;;;17.30;99.90;;;;;;5031175;28;20048;-49
2022/09/07 07:14:32;;;;;;;7.35;2.78;;;17.30;99.90;;;;;;5029168;28;20710;-52
2022/09/07 07:17:01;;;;;;;9.65;2.95;;;17.40;99.90;;;;;;5019959;28;20594;-50
2022/09/07 07:19:28;;;;;;;6.88;3.03;;;17.50;99.90;;;;;;5021203;28;20056;-54
2022/09/07 07:21:54;;;;;;;3.72;2.03;;;17.50;99.90;;;;;;5020426;28;20119;-49
2022/09/07 07:24:41;;;;;;;2.97;2.40;;;17.60;99.90;;;;;;5014569;28;20456;-50
2022/09/07 07:27:08;;;;;;;;;;;17.80;99.90;;;;;;5020239;28;20045;-50
2022/09/07 07:29:35;;;;;;;8.50;3.58;;;18.00;99.90;;;;;;5034550;28;19959;-51
2022/09/07 07:32:03;;;;;;;9.23;3.22;;;18.20;99.90;;;;;;5035816;28;20378;-53
2022/09/07 07:34:30;;;;;;;10.57;3.45;;;18.50;99.90;;;;;;5032776;28;20110;-54
2022/09/07 07:36:56;;;;;;;9.80;3.25;;;18.90;99.90;;;;;;5034630;28;20049;-55
2022/09/07 07:39:23;;;;;;;;;;;19.40;99.90;;;;;;5035100;28;20569;-52
2022/09/07 07:42:11;;;;;;;13.25;3.78;;;20.10;99.90;;;;;;5034172;28;20359;-57
2022/09/07 07:44:37;;;;;;;9.50;2.95;;;20.90;99.90;;;;;;5033841;28;20033;-58
2022/09/07 07:47:04;;;;;;;13.63;3.13;;;21.40;99.90;;;;;;5033967;28;20051;-54
2022/09/07 07:49:31;;;;;;;9.63;3.05;;;21.70;99.90;;;;;;5034699;28;20047;-52
2022/09/07 07:51:58;;;;;;;12.63;2.42;;;21.70;99.90;;;;;;5033867;28;20045;-58
2022/09/07 07:54:45;;;;;;;10.77;2.67;;;21.60;99.90;;;;;;5034141;28;20052;-57
2022/09/07 07:57:12;;;;;;;7.03;2.40;;;21.40;99.90;;;;;;5033732;28;20049;-60
2022/09/07 07:59:39;;;;;;;4.40;2.13;;;21.30;99.90;;;;;;5033756;28;20081;-58
2022/09/07 08:02:08;;;;;;;6.93;3.35;;;21.10;99.90;;;;;;5034889;28;20075;-54
2022/09/07 08:04:35;;;;;;;6.60;3.15;;;21.00;99.90;;;;;;5029631;28;20548;-56
2022/09/07 08:07:03;;;;;;;7.40;3.20;;;20.80;99.90;;;;;;5033654;28;20072;-56
2022/09/07 08:09:40;;;;;;;2.80;2.13;;;20.70;99.90;;;;;;5033498;28;20094;-53
2022/09/07 08:12:08;;;;;;;4.75;2.67;;;20.60;99.90;;;;;;5022273;28;20069;-53
2022/09/07 08:14:39;;;;;;;8.10;2.70;;;20.60;99.90;;;;;;5032838;28;20048;-55
2022/09/07 08:17:07;;;;;;;17.98;3.30;;;20.50;99.90;;;;;;5034525;28;20045;-54
2022/09/07 08:19:33;;;;;;;21.25;4.10;;;20.50;99.90;;;;;;5034195;28;20586;-50
2022/09/07 08:22:00;;;;;;;12.45;3.28;;;20.60;99.90;;;;;;5033320;28;20048;-55
2022/09/07 08:24:27;;;;;;;4.95;2.72;;;20.70;99.90;;;;;;5033698;28;20866;-54
2022/09/07 08:26:54;;;;;;;12.70;4.35;;;20.70;99.90;;;;;;5033763;28;20068;-55
2022/09/07 08:29:21;;;;;;;8.52;2.38;;;20.60;99.90;;;;;;5032310;28;20064;-54
2022/09/07 08:31:47;;;;;;;10.20;2.50;;;20.60;99.90;;;;;;5033172;28;20153;-53
2022/09/07 08:34:14;;;;;;;7.00;2.40;;;20.60;99.90;;;;;;5031721;28;20046;-53
2022/09/07 08:36:41;;;;;;;9.27;2.95;;;20.50;99.90;;;;;;5029554;28;20136;-55
2022/09/07 08:39:08;;;;;;;16.17;2.78;;;20.50;99.90;;;;;;5030407;28;20041;-53
2022/09/07 08:41:55;;;;;;;13.13;2.40;;;20.50;99.90;;;;;;5029606;28;20905;-54
2022/09/07 08:44:47;;;;;;;9.02;2.90;;;20.60;99.90;;;;;;5030028;28;20049;-54
2022/09/07 08:47:30;;;;;;;17.25;3.20;;;20.70;99.90;;;;;;5032910;28;20051;-52
2022/09/07 08:50:28;;;;;;;10.30;2.42;;;20.90;99.90;;;;;;5037243;28;20048;-54
2022/09/07 08:53:03;;;;;;;7.47;2.80;;;21.10;99.90;;;;;;5037658;28;21024;-60
2022/09/07 08:55:39;;;;;;;11.60;2.90;;;21.50;99.90;;;;;;5035883;28;20049;-56
2022/09/07 08:58:23;;;;;;;10.05;2.45;;;22.10;99.90;;;;;;5037678;28;20040;-53
2022/09/07 09:01:27;;;;;;;10.15;2.60;;;22.60;99.90;;;;;;5036812;28;20527;-54
2022/09/07 09:03:57;;;;;;;8.98;2.80;;;23.20;99.90;;;;;;5035625;28;20045;-54
2022/09/07 09:07:07;;;;;;;11.05;3.47;;;23.70;99.90;;;;;;5034214;28;20048;-52
2022/09/07 09:09:51;;;;;;;8.07;2.60;;;24.20;99.90;;;;;;5037083;28;20394;-52
2022/09/07 09:12:34;;;;;;;8.65;2.47;;;24.60;99.90;;;;;;5035084;28;20080;-52
2022/09/07 09:15:20;;;;;;;10.40;3.38;;;24.90;99.90;;;;;;5027650;28;20052;-53
2022/09/07 09:18:02;;;;;;;8.00;1.98;;;25.30;99.90;;;;;;5036866;28;20524;-56
2022/09/07 09:20:57;;;;;;;5.75;2.05;;;25.80;99.90;;;;;;5035264;28;20045;-55
2022/09/07 09:23:33;;;;;;;7.43;2.13;;;26.10;99.90;;;;;;5036632;28;20700;-53
2022/09/07 09:26:22;;;;;;;9.43;3.03;;;26.40;99.90;;;;;;5036741;28;20131;-55
2022/09/07 09:28:48;;;;;;;8.07;1.98;;;26.70;99.90;;;;;;5036921;28;20108;-58
2022/09/07 09:31:31;;;;;;;5.60;1.95;;;27.00;99.90;;;;;;5036632;28;20103;-58
2022/09/07 09:34:04;;;;;;;11.40;2.22;;;27.20;99.90;;;;;;5036951;28;20131;-55
2022/09/07 09:36:34;;;;;;;8.23;2.10;;;27.50;99.90;;;;;;5036404;28;20056;-61
2022/09/07 09:39:28;;;;;;;5.70;1.95;;;27.70;99.90;;;;;;5037355;28;20076;-60
2022/09/07 09:42:06;;;;;;;9.45;2.35;;;27.70;99.90;;;;;;5035008;28;20048;-55
2022/09/07 09:44:36;;;;;;;4.05;1.73;;;27.70;99.90;;;;;;5036390;28;20052;-53
2022/09/07 09:47:04;;;;;;;13.30;2.40;;;27.60;99.90;;;;;;5035258;28;20103;-60
2022/09/07 09:49:52;;;;;;;5.38;2.47;;;27.50;99.90;;;;;;5034562;28;20045;-51
2022/09/07 09:52:21;;;;;;;8.80;2.15;;;27.60;99.90;;;;;;5036746;28;20083;-53
2022/09/07 09:55:00;;;;;;;7.97;2.25;;;27.80;99.90;;;;;;5036261;28;20562;-52
2022/09/07 09:57:54;;;;;;;7.03;1.95;;;28.00;99.90;;;;;;5035140;28;20621;-55
2022/09/07 10:01:03;;;;;;;14.25;2.90;;;28.00;98.60;;;;;;5033743;28;20063;-54
2022/09/07 10:03:50;;;;;;;8.52;2.17;;;28.20;99.90;;;;;;5022677;28;20045;-56
2022/09/07 10:06:20;;;;;;;10.20;2.65;;;28.30;96.70;;;;;;5033225;28;20044;-55
2022/09/07 10:08:59;;;;;;;11.48;2.42;;;28.40;96.10;;;;;;5035604;28;20450;-55
2022/09/07 10:11:41;;;;;;;7.38;1.95;;;28.60;90.90;;;;;;5035884;28;20045;-56
2022/09/07 10:14:42;;;;;;;9.82;2.45;;;28.60;86.40;;;;;;5021191;28;20095;-57
2022/09/07 10:17:11;;;;;;;6.45;2.10;;;28.60;86.30;;;;;;5035572;28;20150;-55
2022/09/07 10:19:41;;;;;;;8.00;2.17;;;28.60;81.90;;;;;;5036608;28;20045;-57
2022/09/07 10:22:36;;;;;;;12.13;2.65;;;28.70;87.10;;;;;;5034388;28;20561;-56
2022/09/07 10:25:27;;;;;;;4.22;1.98;;;28.80;81.20;;;;;;5016955;28;20107;-57
2022/09/07 10:28:21;;;;;;;11.15;1.95;;;28.60;71.40;;;;;;5015923;28;20080;-57
2022/09/07 10:31:24;;;;;;;7.38;1.92;;;28.50;70.70;;;;;;5014026;28;20072;-56
2022/09/07 10:34:11;;;;;;;12.32;2.25;;;28.50;74.60;;;;;;4947317;28;20047;-57
2022/09/07 10:37:15;;;;;;;7.70;2.17;;;28.50;71.90;;;;;;5025286;28;20594;-58
2022/09/07 10:40:24;;;;;;;8.48;2.47;;;28.60;67.50;;;;;;5024704;28;20063;-58
2022/09/07 10:43:23;;;;;;;7.10;2.03;;;28.80;67.50;;;;;;5024859;28;20059;-57
2022/09/07 10:46:33;;;;;;;10.35;2.42;;;29.00;73.00;;;;;;5026072;28;20092;-54
2022/09/07 10:49:26;;;;;;;5.78;2.10;;;29.20;88.50;;;;;;5025538;28;20045;-55
2022/09/07 10:52:12;;;;;;;6.13;3.00;;;29.50;88.80;;;;;;5024177;28;20124;-54
2022/09/07 10:54:59;;;;;;;18.02;3.03;;;29.60;90.70;;;;;;5025381;28;20048;-53
2022/09/07 10:57:45;;;;;;;;;;;29.60;93.50;;;;;;5035479;28;20083;-55
2022/09/07 11:00:18;;;;;;;7.88;3.35;;;29.50;93.50;;;;;;5035354;28;19924;-55
2022/09/07 11:03:10;;;;;;;16.63;4.18;;;29.40;93.70;;;;;;5033400;28;20107;-55
2022/09/07 11:06:17;;;;;;;15.73;4.67;;;29.20;94.30;;;;;;5034066;28;20041;-54
2022/09/07 11:08:56;;;;;;;10.98;4.68;;;28.70;97.30;;;;;;5032505;28;20486;-56
2022/09/07 11:11:48;;;;;;;11.85;4.43;;;28.10;99.90;;;;;;5034544;28;20045;-56
2022/09/07 11:14:40;;;;;;;11.63;4.38;;;27.60;99.90;;;;;;5019388;28;20069;-54
2022/09/07 11:17:40;;;;;;;15.37;4.10;;;27.40;99.90;;;;;;5035199;28;20059;-54
2022/09/07 11:20:25;;;;;;;7.90;3.33;;;27.50;99.90;;;;;;5033408;28;21240;-56
2022/09/07 11:23:03;;;;;;;11.02;4.07;;;27.70;99.90;;;;;;5034458;28;20103;-56
2022/09/07 11:25:39;;;;;;;10.60;3.75;;;28.00;99.90;;;;;;5033833;28;20119;-55
2022/09/07 11:28:50;;;;;;;9.07;2.88;;;28.30;99.90;;;;;;5035198;28;20161;-56
2022/09/07 11:31:42;;;;;;;4.38;2.60;;;28.60;99.90;;;;;;4971891;28;20124;-57
2022/09/07 11:34:27;;;;;;;12.55;2.85;;;28.70;99.90;;;;;;5034657;28;20045;-55
2022/09/07 11:37:02;;;;;;;12.40;3.05;;;28.80;97.00;;;;;;5034296;28;20550;-56
2022/09/07 11:39:50;;;;;;;5.82;3.13;;;28.90;94.10;;;;;;5034799;28;20136;-56
2022/09/07 11:42:36;;;;;;;7.30;2.45;;;28.90;92.90;;;;;;5034053;28;20648;-56
2022/09/07 11:45:33;;;;;;;12.45;2.95;;;28.90;94.70;;;;;;5034088;28;20044;-55
2022/09/07 11:48:10;;;;;;;18.40;3.47;;;28.70;97.70;;;;;;5034737;28;20095;-57
2022/09/07 11:50:42;;;;;;;;;;;28.40;99.80;;;;;;5034964;28;20095;-55
2022/09/07 11:53:17;;;;;;;11.23;2.83;;;28.20;99.90;;;;;;5034249;28;19929;-53
2022/09/07 11:55:49;;;;;;;9.70;3.05;;;27.90;99.90;;;;;;5033365;28;20049;-55
2022/09/07 11:58:38;;;;;;;12.35;4.25;;;27.70;99.90;;;;;;5033492;28;20049;-54
2022/09/07 12:01:07;;;;;;;11.02;2.95;;;27.40;99.90;;;;;;5034288;28;20063;-54
2022/09/07 12:03:40;;;;;;;6.65;2.40;;;27.30;99.90;;;;;;5034116;28;20110;-56
2022/09/07 12:06:49;;;;;;;6.60;2.85;;;27.30;99.90;;;;;;5033387;28;20523;-55
2022/09/07 12:09:58;;;;;;;6.05;2.63;;;27.20;99.90;;;;;;5031854;28;20047;-55
2022/09/07 12:12:34;;;;;;;6.97;2.38;;;27.00;99.90;;;;;;5003067;28;20075;-55
2022/09/07 12:15:25;;;;;;;8.50;2.92;;;27.00;99.90;;;;;;5033760;28;20047;-57
2022/09/07 12:18:15;;;;;;;7.60;2.83;;;27.10;99.90;;;;;;5033479;28;20048;-55
2022/09/07 12:20:44;;;;;;;9.27;2.67;;;27.10;99.90;;;;;;5033956;28;20746;-56
2022/09/07 12:23:14;;;;;;;9.65;3.35;;;27.10;99.90;;;;;;5032512;28;20045;-54
2022/09/07 12:25:45;;;;;;;9.93;2.70;;;27.00;99.90;;;;;;5033627;28;20604;-54
2022/09/07 12:28:22;;;;;;;10.40;2.72;;;26.90;99.90;;;;;;5033412;28;20580;-54
2022/09/07 12:31:03;;;;;;;12.20;2.78;;;26.90;99.90;;;;;;5032450;28;20041;-54
2022/09/07 12:33:38;;;;;;;8.85;2.80;;;26.90;99.90;;;;;;5034012;28;20059;-57
2022/09/07 12:36:27;;;;;;;6.43;2.80;;;26.90;99.90;;;;;;5033070;28;20059;-57
2022/09/07 12:39:19;;;;;;;12.55;2.70;;;27.00;99.90;;;;;;5033644;28;20055;-56
2022/09/07 12:42:11;;;;;;;4.68;2.20;;;27.10;99.90;;;;;;5033167;28;20198;-57
2022/09/07 12:45:29;;;;;;;5.85;2.65;;;27.30;99.90;;;;;;5032367;28;20061;-55
2022/09/07 12:47:57;;;;;;;;;;;27.40;99.90;;;;;;5033611;28;20127;-56
2022/09/07 12:50:28;;;;;;;7.65;2.45;;;27.50;99.90;;;;;;5033438;28;19928;-57
2022/09/07 12:53:26;;;;;;;11.82;2.53;;;27.50;99.90;;;;;;5031569;28;20512;-53
2022/09/07 12:56:09;;;;;;;8.20;3.15;;;27.50;99.90;;;;;;5033864;28;20395;-58
2022/09/07 12:59:11;;;;;;;8.38;2.97;;;27.50;99.90;;;;;;5032617;28;20056;-58
2022/09/07 13:02:16;;;;;;;7.60;2.25;;;27.60;99.90;;;;;;5033556;28;20048;-56
2022/09/07 13:05:20;;;;;;;11.63;2.80;;;27.70;99.90;;;;;;5030068;28;20134;-54
2022/09/07 13:08:13;;;;;;;7.57;3.13;;;27.80;99.90;;;;;;5033297;28;20710;-56
2022/09/07 13:10:41;;;;;;;7.18;2.25;;;27.90;99.90;;;;;;4998792;28;20136;-56
2022/09/07 13:13:17;;;;;;;10.18;3.05;;;28.00;99.90;;;;;;5033394;28;20553;-58
2022/09/07 13:15:46;;;;;;;9.70;3.08;;;28.20;99.90;;;;;;5031229;28;20126;-57
2022/09/07 13:18:27;;;;;;;9.35;2.90;;;28.40;99.90;;;;;;5033222;28;20045;-60
2022/09/07 13:21:17;;;;;;;8.18;2.67;;;28.60;99.90;;;;;;5033229;28;20104;-59
2022/09/07 13:24:17;;;;;;;6.03;2.60;;;28.70;96.30;;;;;;5030449;28;20044;-58
2022/09/07 13:27:26;;;;;;;11.88;2.75;;;28.70;95.20;;;;;;5032726;28;20044;-60
2022/09/07 13:30:03;;;;;;;16.95;2.97;;;28.70;96.40;;;;;;5031814;28;20045;-60
2022/09/07 13:32:31;;;;;;;9.25;2.95;;;28.80;92.30;;;;;;5031811;28;20037;-58
2022/09/07 13:35:23;;;;;;;12.73;3.63;;;28.90;92.50;;;;;;5034119;28;20108;-58